sensor_id;sensor_type;location;lat;lon;timestamp;pressure;altitude;pressure_sealevel;temperature;humidity
43707;BME280;61348;53.392;-6.248;2023-05-09T00:00:31;100473.44;;;13.18;87.48
43707;BME280;61348;53.392;-6.248;2023-05-09T00:02:58;100475.34;;;13.14;87.56
43707;BME280;61348;53.392;-6.248;2023-05-09T00:05:25;100471.38;;;13.15;87.55
43707;BME280;61348;53.392;-6.248;2023-05-09T00:07:51;100462.63;;;13.13;87.94
43707;BME280;61348;53.392;-6.248;2023-05-09T00:10:18;100472.13;;;13.12;87.74
43707;BME280;61348;53.392;-6.248;2023-05-09T00:12:45;100471.28;;;13.08;87.76
43707;BME280;61348;53.392;-6.248;2023-05-09T00:15:12;100467.31;;;13.09;87.63
43707;BME280;61348;53.392;-6.248;2023-05-09T00:17:40;100467.69;;;13.07;87.89
43707;BME280;61348;53.392;-6.248;2023-05-09T00:20:07;100461.59;;;13.02;87.81
43707;BME280;61348;53.392;-6.248;2023-05-09T00:22:38;100457.91;;;12.98;88.21
43707;BME280;61348;53.392;-6.248;2023-05-09T00:25:09;100469.75;;;12.95;88.33
43707;BME280;61348;53.392;-6.248;2023-05-09T00:27:36;100475.72;;;12.93;88.44
43707;BME280;61348;53.392;-6.248;2023-05-09T00:30:04;100468.47;;;12.89;88.43
43707;BME280;61348;53.392;-6.248;2023-05-09T00:32:32;100472.13;;;12.93;88.46
43707;BME280;61348;53.392;-6.248;2023-05-09T00:34:59;100476.50;;;12.94;88.36
43707;BME280;61348;53.392;-6.248;2023-05-09T00:37:27;100472.84;;;12.90;88.36
43707;BME280;61348;53.392;-6.248;2023-05-09T00:39:54;100473.97;;;12.85;88.38
43707;BME280;61348;53.392;-6.248;2023-05-09T00:42:20;100473.88;;;12.81;88.67
43707;BME280;61348;53.392;-6.248;2023-05-09T00:44:47;100477.84;;;12.80;88.70
43707;BME280;61348;53.392;-6.248;2023-05-09T00:47:14;100468.31;;;12.81;88.67
43707;BME280;61348;53.392;-6.248;2023-05-09T00:49:41;100480.19;;;12.78;88.61
43707;BME280;61348;53.392;-6.248;2023-05-09T00:52:07;100478.44;;;12.70;88.87
43707;BME280;61348;53.392;-6.248;2023-05-09T00:54:34;100479.97;;;12.68;89.09
43707;BME280;61348;53.392;-6.248;2023-05-09T00:57:02;100484.78;;;12.71;89.18
43707;BME280;61348;53.392;-6.248;2023-05-09T00:59:29;100473.66;;;12.71;89.10
43707;BME280;61348;53.392;-6.248;2023-05-09T01:01:56;100482.38;;;12.69;88.95
43707;BME280;61348;53.392;-6.248;2023-05-09T01:04:23;100474.41;;;12.68;89.11
43707;BME280;61348;53.392;-6.248;2023-05-09T01:07:08;100483.09;;;12.66;89.26
43707;BME280;61348;53.392;-6.248;2023-05-09T01:12:44;100485.00;;;12.62;89.17
43707;BME280;61348;53.392;-6.248;2023-05-09T01:17:54;100486.16;;;12.61;89.05
43707;BME280;61348;53.392;-6.248;2023-05-09T01:20:37;100487.63;;;12.55;89.18
43707;BME280;61348;53.392;-6.248;2023-05-09T01:23:11;100481.28;;;12.55;89.22
43707;BME280;61348;53.392;-6.248;2023-05-09T01:25:54;100478.84;;;12.53;89.26
43707;BME280;61348;53.392;-6.248;2023-05-09T01:30:55;100482.06;;;12.55;88.99
43707;BME280;61348;53.392;-6.248;2023-05-09T01:33:25;100484.50;;;12.57;89.15
43707;BME280;61348;53.392;-6.248;2023-05-09T01:35:57;100478.50;;;12.55;89.30
43707;BME280;61348;53.392;-6.248;2023-05-09T01:38:25;100479.59;;;12.50;89.32
43707;BME280;61348;53.392;-6.248;2023-05-09T01:40:56;100477.19;;;12.49;89.34
43707;BME280;61348;53.392;-6.248;2023-05-09T01:43:26;100475.94;;;12.46;89.34
43707;BME280;61348;53.392;-6.248;2023-05-09T01:45:54;100474.63;;;12.40;89.49
43707;BME280;61348;53.392;-6.248;2023-05-09T01:48:22;100472.22;;;12.39;89.49
43707;BME280;61348;53.392;-6.248;2023-05-09T01:50:53;100476.97;;;12.38;89.65
43707;BME280;61348;53.392;-6.248;2023-05-09T01:53:21;100468.19;;;12.36;89.66
43707;BME280;61348;53.392;-6.248;2023-05-09T01:55:50;100476.44;;;12.33;89.77
43707;BME280;61348;53.392;-6.248;2023-05-09T01:58:20;100469.25;;;12.32;89.55
43707;BME280;61348;53.392;-6.248;2023-05-09T02:00:49;100468.03;;;12.29;89.49
43707;BME280;61348;53.392;-6.248;2023-05-09T02:03:16;100468.41;;;12.28;89.81
43707;BME280;61348;53.392;-6.248;2023-05-09T02:05:44;100465.63;;;12.28;89.89
43707;BME280;61348;53.392;-6.248;2023-05-09T02:08:13;100467.59;;;12.27;90.14
43707;BME280;61348;53.392;-6.248;2023-05-09T02:10:40;100465.97;;;12.26;89.96
43707;BME280;61348;53.392;-6.248;2023-05-09T02:13:08;100469.50;;;12.23;89.96
43707;BME280;61348;53.392;-6.248;2023-05-09T02:15:35;100463.75;;;12.16;90.28
43707;BME280;61348;53.392;-6.248;2023-05-09T02:18:02;100460.19;;;12.15;90.47
43707;BME280;61348;53.392;-6.248;2023-05-09T02:20:29;100454.56;;;12.12;90.48
43707;BME280;61348;53.392;-6.248;2023-05-09T02:22:56;100459.66;;;12.10;90.70
43707;BME280;61348;53.392;-6.248;2023-05-09T02:25:23;100458.06;;;12.09;90.80
43707;BME280;61348;53.392;-6.248;2023-05-09T02:27:51;100446.81;;;12.02;90.84
43707;BME280;61348;53.392;-6.248;2023-05-09T02:30:22;100454.69;;;12.00;91.14
43707;BME280;61348;53.392;-6.248;2023-05-09T02:32:55;100451.47;;;11.98;91.17
43707;BME280;61348;53.392;-6.248;2023-05-09T02:35:26;100448.16;;;11.92;91.27
43707;BME280;61348;53.392;-6.248;2023-05-09T02:37:55;100448.06;;;11.89;91.46
43707;BME280;61348;53.392;-6.248;2023-05-09T02:40:23;100447.19;;;11.85;91.58
43707;BME280;61348;53.392;-6.248;2023-05-09T02:42:51;100447.19;;;11.85;91.82
43707;BME280;61348;53.392;-6.248;2023-05-09T02:45:18;100442.03;;;11.83;91.60
43707;BME280;61348;53.392;-6.248;2023-05-09T02:47:45;100444.00;;;11.83;91.32
43707;BME280;61348;53.392;-6.248;2023-05-09T02:50:12;100440.69;;;11.77;91.52
43707;BME280;61348;53.392;-6.248;2023-05-09T02:52:39;100441.50;;;11.78;91.61
43707;BME280;61348;53.392;-6.248;2023-05-09T02:55:06;100440.25;;;11.75;91.75
43707;BME280;61348;53.392;-6.248;2023-05-09T02:57:33;100431.94;;;11.75;91.80
43707;BME280;61348;53.392;-6.248;2023-05-09T03:00:00;100436.66;;;11.75;91.79
43707;BME280;61348;53.392;-6.248;2023-05-09T03:02:27;100434.59;;;11.72;91.78
43707;BME280;61348;53.392;-6.248;2023-05-09T03:04:54;100433.66;;;11.68;91.79
43707;BME280;61348;53.392;-6.248;2023-05-09T03:07:21;100442.75;;;11.65;91.91
43707;BME280;61348;53.392;-6.248;2023-05-09T03:09:48;100432.38;;;11.61;92.10
43707;BME280;61348;53.392;-6.248;2023-05-09T03:12:15;100438.34;;;11.63;92.09
43707;BME280;61348;53.392;-6.248;2023-05-09T03:14:42;100442.75;;;11.65;91.95
43707;BME280;61348;53.392;-6.248;2023-05-09T03:17:08;100443.78;;;11.60;92.27
43707;BME280;61348;53.392;-6.248;2023-05-09T03:19:35;100435.47;;;11.60;92.04
43707;BME280;61348;53.392;-6.248;2023-05-09T03:22:02;100435.41;;;11.56;92.01
43707;BME280;61348;53.392;-6.248;2023-05-09T03:24:29;100444.06;;;11.55;92.08
43707;BME280;61348;53.392;-6.248;2023-05-09T03:26:55;100426.56;;;11.51;92.50
43707;BME280;61348;53.392;-6.248;2023-05-09T03:29:22;100438.00;;;11.49;92.47
43707;BME280;61348;53.392;-6.248;2023-05-09T03:31:49;100437.22;;;11.49;92.47
43707;BME280;61348;53.392;-6.248;2023-05-09T03:34:16;100428.91;;;11.49;92.45
43707;BME280;61348;53.392;-6.248;2023-05-09T03:36:43;100432.00;;;11.47;92.35
43707;BME280;61348;53.392;-6.248;2023-05-09T03:39:10;100424.41;;;11.44;92.05
43707;BME280;61348;53.392;-6.248;2023-05-09T03:41:36;100427.19;;;11.44;92.33
43707;BME280;61348;53.392;-6.248;2023-05-09T03:44:03;100423.25;;;11.45;92.33
43707;BME280;61348;53.392;-6.248;2023-05-09T03:46:30;100423.25;;;11.45;92.15
43707;BME280;61348;53.392;-6.248;2023-05-09T03:48:57;100421.63;;;11.44;92.13
43707;BME280;61348;53.392;-6.248;2023-05-09T03:51:24;100421.63;;;11.44;91.89
43707;BME280;61348;53.392;-6.248;2023-05-09T03:53:50;100424.84;;;11.46;91.88
43707;BME280;61348;53.392;-6.248;2023-05-09T03:56:17;100427.09;;;11.41;91.52
43707;BME280;61348;53.392;-6.248;2023-05-09T03:58:44;100417.88;;;11.37;91.86
43707;BME280;61348;53.392;-6.248;2023-05-09T04:01:10;100422.88;;;11.31;91.98
43707;BME280;61348;53.392;-6.248;2023-05-09T04:03:37;100418.06;;;11.28;92.28
43707;BME280;61348;53.392;-6.248;2023-05-09T04:06:04;100420.81;;;11.28;92.44
43707;BME280;61348;53.392;-6.248;2023-05-09T04:08:32;100425.22;;;11.29;92.37
43707;BME280;61348;53.392;-6.248;2023-05-09T04:11:01;100422.06;;;11.31;92.42
43707;BME280;61348;53.392;-6.248;2023-05-09T04:13:28;100417.78;;;11.33;92.56
43707;BME280;61348;53.392;-6.248;2023-05-09T04:15:56;100413.50;;;11.36;92.77
43707;BME280;61348;53.392;-6.248;2023-05-09T04:18:22;100413.59;;;11.39;92.82
43707;BME280;61348;53.392;-6.248;2023-05-09T04:20:49;100409.72;;;11.44;93.06
43707;BME280;61348;53.392;-6.248;2023-05-09T04:23:17;100416.53;;;11.46;92.97
43707;BME280;61348;53.392;-6.248;2023-05-09T04:25:43;100417.00;;;11.48;93.23
43707;BME280;61348;53.392;-6.248;2023-05-09T04:28:10;100414.28;;;11.52;93.16
43707;BME280;61348;53.392;-6.248;2023-05-09T04:30:38;100413.50;;;11.51;93.18
43707;BME280;61348;53.392;-6.248;2023-05-09T04:33:04;100410.75;;;11.51;93.43
43707;BME280;61348;53.392;-6.248;2023-05-09T04:35:31;100411.50;;;11.52;93.65
43707;BME280;61348;53.392;-6.248;2023-05-09T04:37:58;100416.00;;;11.56;93.71
43707;BME280;61348;53.392;-6.248;2023-05-09T04:40:25;100418.50;;;11.61;93.61
43707;BME280;61348;53.392;-6.248;2023-05-09T04:42:52;100411.06;;;11.66;93.70
43707;BME280;61348;53.392;-6.248;2023-05-09T04:45:19;100399.97;;;11.66;93.58
43707;BME280;61348;53.392;-6.248;2023-05-09T04:47:45;100406.88;;;11.72;93.51
43707;BME280;61348;53.392;-6.248;2023-05-09T04:50:12;100406.59;;;11.77;93.60
43707;BME280;61348;53.392;-6.248;2023-05-09T04:52:39;100401.94;;;11.81;93.32
43707;BME280;61348;53.392;-6.248;2023-05-09T04:55:07;100399.53;;;11.79;93.08
43707;BME280;61348;53.392;-6.248;2023-05-09T04:57:33;100403.53;;;11.82;93.25
43707;BME280;61348;53.392;-6.248;2023-05-09T05:00:00;100396.47;;;11.84;93.03
43707;BME280;61348;53.392;-6.248;2023-05-09T05:02:27;100398.09;;;11.85;92.87
43707;BME280;61348;53.392;-6.248;2023-05-09T05:04:54;100392.59;;;11.89;92.91
43707;BME280;61348;53.392;-6.248;2023-05-09T05:07:36;100396.56;;;11.88;92.69
43707;BME280;61348;53.392;-6.248;2023-05-09T05:10:03;100387.03;;;11.89;92.51
43707;BME280;61348;53.392;-6.248;2023-05-09T05:12:31;100386.31;;;11.92;92.85
43707;BME280;61348;53.392;-6.248;2023-05-09T05:14:58;100391.53;;;11.93;92.80
43707;BME280;61348;53.392;-6.248;2023-05-09T05:17:25;100390.72;;;11.93;92.96
43707;BME280;61348;53.392;-6.248;2023-05-09T05:19:54;100387.94;;;11.93;92.87
43707;BME280;61348;53.392;-6.248;2023-05-09T05:22:21;100390.44;;;11.98;93.31
43707;BME280;61348;53.392;-6.248;2023-05-09T05:24:48;100388.09;;;12.00;93.07
43707;BME280;61348;53.392;-6.248;2023-05-09T05:27:15;100394.44;;;12.00;92.83
43707;BME280;61348;53.392;-6.248;2023-05-09T05:29:42;100384.16;;;12.01;93.02
43707;BME280;61348;53.392;-6.248;2023-05-09T05:32:08;100383.34;;;12.00;92.95
43707;BME280;61348;53.392;-6.248;2023-05-09T05:34:36;100392.03;;;11.99;92.85
43707;BME280;61348;53.392;-6.248;2023-05-09T05:37:04;100384.59;;;12.03;92.92
43707;BME280;61348;53.392;-6.248;2023-05-09T05:39:31;100388.19;;;12.03;92.91
43707;BME280;61348;53.392;-6.248;2023-05-09T05:41:58;100384.06;;;11.97;92.75
43707;BME280;61348;53.392;-6.248;2023-05-09T05:44:24;100381.69;;;11.96;92.80
43707;BME280;61348;53.392;-6.248;2023-05-09T05:46:51;100391.16;;;11.95;92.78
43707;BME280;61348;53.392;-6.248;2023-05-09T05:49:18;100388.75;;;11.93;92.84
43707;BME280;61348;53.392;-6.248;2023-05-09T05:51:45;100383.13;;;11.90;92.88
43707;BME280;61348;53.392;-6.248;2023-05-09T05:54:11;100394.31;;;11.93;92.62
43707;BME280;61348;53.392;-6.248;2023-05-09T05:56:38;100381.69;;;11.96;92.77
43707;BME280;61348;53.392;-6.248;2023-05-09T05:59:05;100383.44;;;12.04;92.94
43707;BME280;61348;53.392;-6.248;2023-05-09T06:01:32;100393.06;;;12.10;92.74
43707;BME280;61348;53.392;-6.248;2023-05-09T06:03:58;100381.22;;;12.13;92.67
43707;BME280;61348;53.392;-6.248;2023-05-09T06:06:26;100376.94;;;12.15;92.61
43707;BME280;61348;53.392;-6.248;2023-05-09T06:08:53;100384.19;;;12.20;92.45
43707;BME280;61348;53.392;-6.248;2023-05-09T06:11:20;100371.97;;;12.25;92.38
43707;BME280;61348;53.392;-6.248;2023-05-09T06:13:48;100380.00;;;12.30;92.43
43707;BME280;61348;53.392;-6.248;2023-05-09T06:16:15;100379.19;;;12.29;92.33
43707;BME280;61348;53.392;-6.248;2023-05-09T06:18:46;100382.41;;;12.31;92.28
43707;BME280;61348;53.392;-6.248;2023-05-09T06:21:13;100383.22;;;12.32;92.18
43707;BME280;61348;53.392;-6.248;2023-05-09T06:23:39;100388.03;;;12.35;92.09
43707;BME280;61348;53.392;-6.248;2023-05-09T06:26:26;100385.41;;;12.42;92.00
43707;BME280;61348;53.392;-6.248;2023-05-09T06:28:53;100388.97;;;12.42;91.73
43707;BME280;61348;53.392;-6.248;2023-05-09T06:31:20;100396.16;;;12.43;91.73
43707;BME280;61348;53.392;-6.248;2023-05-09T06:33:48;100399.28;;;12.42;91.66
43707;BME280;61348;53.392;-6.248;2023-05-09T06:36:15;100385.47;;;12.45;91.77
43707;BME280;61348;53.392;-6.248;2023-05-09T06:38:41;100388.84;;;12.54;91.71
43707;BME280;61348;53.392;-6.248;2023-05-09T06:41:08;100387.00;;;12.62;91.80
43707;BME280;61348;53.392;-6.248;2023-05-09T06:43:35;100381.94;;;12.67;91.53
43707;BME280;61348;53.392;-6.248;2023-05-09T06:46:02;100380.84;;;12.72;91.34
43707;BME280;61348;53.392;-6.248;2023-05-09T06:48:29;100385.78;;;12.82;91.63
43707;BME280;61348;53.392;-6.248;2023-05-09T06:50:57;100390.69;;;12.89;91.08
43707;BME280;61348;53.392;-6.248;2023-05-09T06:53:23;100390.00;;;12.95;90.88
43707;BME280;61348;53.392;-6.248;2023-05-09T06:55:50;100391.00;;;13.06;91.10
43707;BME280;61348;53.392;-6.248;2023-05-09T06:58:17;100382.44;;;13.15;90.96
43707;BME280;61348;53.392;-6.248;2023-05-09T07:00:44;100384.22;;;13.26;90.62
43707;BME280;61348;53.392;-6.248;2023-05-09T07:03:10;100387.94;;;13.34;90.79
43707;BME280;61348;53.392;-6.248;2023-05-09T07:05:37;100388.47;;;13.43;90.61
43707;BME280;61348;53.392;-6.248;2023-05-09T07:08:04;100383.03;;;13.50;90.47
43707;BME280;61348;53.392;-6.248;2023-05-09T07:10:31;100386.66;;;13.54;89.88
43707;BME280;61348;53.392;-6.248;2023-05-09T07:12:58;100398.34;;;13.63;90.19
43707;BME280;61348;53.392;-6.248;2023-05-09T07:15:24;100392.13;;;13.73;90.00
43707;BME280;61348;53.392;-6.248;2023-05-09T07:18:06;100402.69;;;13.90;89.69
43707;BME280;61348;53.392;-6.248;2023-05-09T07:20:33;100397.25;;;13.97;89.61
43707;BME280;61348;53.392;-6.248;2023-05-09T07:22:59;100396.53;;;14.04;89.31
43707;BME280;61348;53.392;-6.248;2023-05-09T07:25:29;100394.22;;;14.10;89.28
43707;BME280;61348;53.392;-6.248;2023-05-09T07:27:56;100400.69;;;14.17;89.24
43707;BME280;61348;53.392;-6.248;2023-05-09T07:30:22;100386.47;;;14.26;89.03
43707;BME280;61348;53.392;-6.248;2023-05-09T07:32:49;100396.56;;;14.34;88.81
43707;BME280;61348;53.392;-6.248;2023-05-09T07:35:18;100397.09;;;14.46;89.06
43707;BME280;61348;53.392;-6.248;2023-05-09T07:37:45;100392.47;;;14.57;89.03
43707;BME280;61348;53.392;-6.248;2023-05-09T07:40:12;100394.09;;;14.62;88.91
43707;BME280;61348;53.392;-6.248;2023-05-09T07:42:40;100393.75;;;14.63;89.05
43707;BME280;61348;53.392;-6.248;2023-05-09T07:45:07;100401.00;;;14.72;89.58
43707;BME280;61348;53.392;-6.248;2023-05-09T07:47:35;100395.09;;;14.80;90.00
43707;BME280;61348;53.392;-6.248;2023-05-09T07:50:02;100388.06;;;14.93;90.04
43707;BME280;61348;53.392;-6.248;2023-05-09T07:52:29;100399.78;;;15.09;90.98
43707;BME280;61348;53.392;-6.248;2023-05-09T07:54:56;100397.19;;;15.31;90.70
43707;BME280;61348;53.392;-6.248;2023-05-09T07:57:23;100398.97;;;15.49;90.25
43707;BME280;61348;53.392;-6.248;2023-05-09T07:59:49;100400.34;;;15.69;89.87
43707;BME280;61348;53.392;-6.248;2023-05-09T08:02:16;100402.41;;;15.83;88.04
43707;BME280;61348;53.392;-6.248;2023-05-09T08:04:44;100390.03;;;15.84;86.92
43707;BME280;61348;53.392;-6.248;2023-05-09T08:07:14;100390.44;;;15.82;85.57
43707;BME280;61348;53.392;-6.248;2023-05-09T08:09:41;100386.16;;;16.03;85.15
43707;BME280;61348;53.392;-6.248;2023-05-09T08:12:08;100394.00;;;16.52;84.86
43707;BME280;61348;53.392;-6.248;2023-05-09T08:14:35;100397.38;;;17.21;83.60
43707;BME280;61348;53.392;-6.248;2023-05-09T08:17:02;100397.34;;;17.88;81.21
43707;BME280;61348;53.392;-6.248;2023-05-09T08:19:28;100394.00;;;18.49;79.57
43707;BME280;61348;53.392;-6.248;2023-05-09T08:21:57;100390.53;;;18.97;77.13
43707;BME280;61348;53.392;-6.248;2023-05-09T08:24:24;100387.13;;;19.26;75.39
43707;BME280;61348;53.392;-6.248;2023-05-09T08:26:51;100386.63;;;19.46;73.91
43707;BME280;61348;53.392;-6.248;2023-05-09T08:29:17;100390.16;;;19.53;71.98
43707;BME280;61348;53.392;-6.248;2023-05-09T08:31:45;100394.25;;;19.41;71.05
43707;BME280;61348;53.392;-6.248;2023-05-09T08:34:11;100397.94;;;19.28;69.39
43707;BME280;61348;53.392;-6.248;2023-05-09T08:36:38;100392.47;;;19.10;69.04
43707;BME280;61348;53.392;-6.248;2023-05-09T08:39:06;100386.63;;;18.83;68.05
43707;BME280;61348;53.392;-6.248;2023-05-09T08:41:35;100386.72;;;18.62;68.33
43707;BME280;61348;53.392;-6.248;2023-05-09T08:44:03;100389.97;;;18.61;67.95
43707;BME280;61348;53.392;-6.248;2023-05-09T08:46:33;100382.72;;;18.63;67.99
43707;BME280;61348;53.392;-6.248;2023-05-09T08:49:04;100380.69;;;18.67;67.57
43707;BME280;61348;53.392;-6.248;2023-05-09T08:51:34;100389.16;;;18.60;66.50
43707;BME280;61348;53.392;-6.248;2023-05-09T08:54:01;100370.78;;;18.42;66.37
43707;BME280;61348;53.392;-6.248;2023-05-09T08:56:29;100380.03;;;18.32;66.41
43707;BME280;61348;53.392;-6.248;2023-05-09T08:58:57;100376.03;;;18.33;66.16
43707;BME280;61348;53.392;-6.248;2023-05-09T09:01:24;100378.84;;;18.22;65.76
43707;BME280;61348;53.392;-6.248;2023-05-09T09:03:52;100382.91;;;18.07;65.92
43707;BME280;61348;53.392;-6.248;2023-05-09T09:06:20;100373.34;;;17.94;66.31
43707;BME280;61348;53.392;-6.248;2023-05-09T09:08:49;100369.31;;;18.02;66.02
43707;BME280;61348;53.392;-6.248;2023-05-09T09:11:16;100361.69;;;18.06;66.05
43707;BME280;61348;53.392;-6.248;2023-05-09T09:13:44;100358.09;;;18.16;65.70
43707;BME280;61348;53.392;-6.248;2023-05-09T09:16:17;100360.81;;;18.30;65.71
43707;BME280;61348;53.392;-6.248;2023-05-09T09:18:45;100353.53;;;18.47;65.38
43707;BME280;61348;53.392;-6.248;2023-05-09T09:21:14;100355.31;;;18.89;64.57
43707;BME280;61348;53.392;-6.248;2023-05-09T09:23:45;100355.44;;;19.26;64.08
43707;BME280;61348;53.392;-6.248;2023-05-09T09:26:15;100362.94;;;19.87;63.47
43707;BME280;61348;53.392;-6.248;2023-05-09T09:28:42;100370.50;;;20.61;61.75
43707;BME280;61348;53.392;-6.248;2023-05-09T09:31:26;100370.31;;;21.29;60.79
43707;BME280;61348;53.392;-6.248;2023-05-09T09:34:01;100365.13;;;21.74;59.45
43707;BME280;61348;53.392;-6.248;2023-05-09T09:36:29;100360.97;;;22.05;57.74
43707;BME280;61348;53.392;-6.248;2023-05-09T09:38:59;100357.97;;;22.12;56.70
43707;BME280;61348;53.392;-6.248;2023-05-09T09:41:44;100354.44;;;22.48;56.82
43707;BME280;61348;53.392;-6.248;2023-05-09T09:44:18;100351.19;;;22.85;55.19
43707;BME280;61348;53.392;-6.248;2023-05-09T09:46:47;100354.03;;;23.01;53.64
43707;BME280;61348;53.392;-6.248;2023-05-09T09:49:18;100347.25;;;22.98;53.36
43707;BME280;61348;53.392;-6.248;2023-05-09T09:51:55;100352.59;;;23.29;53.77
43707;BME280;61348;53.392;-6.248;2023-05-09T09:54:27;100341.91;;;23.36;52.32
43707;BME280;61348;53.392;-6.248;2023-05-09T09:56:54;100343.34;;;23.44;51.20
43707;BME280;61348;53.392;-6.248;2023-05-09T09:59:24;100337.34;;;23.42;50.61
43707;BME280;61348;53.392;-6.248;2023-05-09T10:02:04;100342.09;;;23.29;50.94
43707;BME280;61348;53.392;-6.248;2023-05-09T10:04:35;100344.41;;;22.82;51.33
43707;BME280;61348;53.392;-6.248;2023-05-09T10:07:04;100336.56;;;22.54;51.26
43707;BME280;61348;53.392;-6.248;2023-05-09T10:09:33;100332.69;;;21.89;52.23
43707;BME280;61348;53.392;-6.248;2023-05-09T10:12:04;100334.81;;;21.58;52.80
43707;BME280;61348;53.392;-6.248;2023-05-09T10:14:34;100340.75;;;21.64;52.42
43707;BME280;61348;53.392;-6.248;2023-05-09T10:17:02;100330.47;;;21.54;51.99
43707;BME280;61348;53.392;-6.248;2023-05-09T10:19:30;100335.03;;;20.94;52.65
43707;BME280;61348;53.392;-6.248;2023-05-09T10:22:04;100339.94;;;20.90;52.91
43707;BME280;61348;53.392;-6.248;2023-05-09T10:27:10;100333.66;;;21.06;51.44
43707;BME280;61348;53.392;-6.248;2023-05-09T10:29:44;100335.53;;;20.89;51.67
43707;BME280;61348;53.392;-6.248;2023-05-09T10:32:17;100330.50;;;20.47;51.52
43707;BME280;61348;53.392;-6.248;2023-05-09T10:34:52;100329.25;;;20.18;52.50
43707;BME280;61348;53.392;-6.248;2023-05-09T10:37:20;100331.78;;;20.09;52.83
43707;BME280;61348;53.392;-6.248;2023-05-09T10:39:47;100321.53;;;19.91;52.81
43707;BME280;61348;53.392;-6.248;2023-05-09T10:42:18;100328.53;;;19.76;52.82
43707;BME280;61348;53.392;-6.248;2023-05-09T10:44:46;100321.72;;;19.77;52.96
43707;BME280;61348;53.392;-6.248;2023-05-09T10:47:14;100322.09;;;19.79;52.80
43707;BME280;61348;53.392;-6.248;2023-05-09T10:49:42;100316.09;;;19.77;52.52
43707;BME280;61348;53.392;-6.248;2023-05-09T10:52:09;100317.72;;;19.75;53.00
43707;BME280;61348;53.392;-6.248;2023-05-09T10:54:36;100313.06;;;19.61;53.15
43707;BME280;61348;53.392;-6.248;2023-05-09T10:57:04;100306.41;;;19.44;53.59
43707;BME280;61348;53.392;-6.248;2023-05-09T11:02:00;100311.84;;;19.14;54.00
43707;BME280;61348;53.392;-6.248;2023-05-09T11:04:30;100301.19;;;18.95;54.74
43707;BME280;61348;53.392;-6.248;2023-05-09T11:06:58;100304.78;;;18.96;54.69
43707;BME280;61348;53.392;-6.248;2023-05-09T11:09:34;100298.34;;;18.99;54.89
43707;BME280;61348;53.392;-6.248;2023-05-09T11:19:55;100292.25;;;19.07;54.92
43707;BME280;61348;53.392;-6.248;2023-05-09T11:22:24;100280.97;;;19.14;55.04
43707;BME280;61348;53.392;-6.248;2023-05-09T11:25:07;100283.69;;;19.25;55.19
43707;BME280;61348;53.392;-6.248;2023-05-09T11:27:42;100281.63;;;19.32;55.41
43707;BME280;61348;53.392;-6.248;2023-05-09T11:30:12;100276.00;;;19.32;55.58
43707;BME280;61348;53.392;-6.248;2023-05-09T11:32:46;100280.44;;;19.30;57.00
43707;BME280;61348;53.392;-6.248;2023-05-09T11:35:15;100285.28;;;19.26;57.62
43707;BME280;61348;53.392;-6.248;2023-05-09T11:37:45;100278.13;;;19.21;58.24
43707;BME280;61348;53.392;-6.248;2023-05-09T11:40:14;100290.44;;;19.31;58.45
43707;BME280;61348;53.392;-6.248;2023-05-09T11:42:42;100280.38;;;19.37;58.42
43707;BME280;61348;53.392;-6.248;2023-05-09T11:45:11;100274.75;;;19.37;59.46
43707;BME280;61348;53.392;-6.248;2023-05-09T11:47:39;100277.94;;;19.42;59.80
43707;BME280;61348;53.392;-6.248;2023-05-09T11:50:07;100280.31;;;19.44;59.60
43707;BME280;61348;53.392;-6.248;2023-05-09T11:52:36;100281.66;;;19.29;59.51
43707;BME280;61348;53.392;-6.248;2023-05-09T11:55:07;100289.75;;;19.20;59.70
43707;BME280;61348;53.392;-6.248;2023-05-09T11:57:45;100279.06;;;19.04;60.31
43707;BME280;61348;53.392;-6.248;2023-05-09T12:00:20;100279.84;;;19.05;60.16
43707;BME280;61348;53.392;-6.248;2023-05-09T12:02:48;100280.22;;;19.10;59.99
43707;BME280;61348;53.392;-6.248;2023-05-09T12:05:18;100284.72;;;19.01;60.08
43707;BME280;61348;53.392;-6.248;2023-05-09T12:07:46;100276.78;;;18.89;60.65
43707;BME280;61348;53.392;-6.248;2023-05-09T12:10:19;100281.72;;;18.74;60.63
43707;BME280;61348;53.392;-6.248;2023-05-09T12:12:51;100277.81;;;18.57;60.45
43707;BME280;61348;53.392;-6.248;2023-05-09T12:15:18;100282.72;;;18.32;61.03
43707;BME280;61348;53.392;-6.248;2023-05-09T12:17:59;100278.84;;;18.08;61.31
43707;BME280;61348;53.392;-6.248;2023-05-09T12:20:27;100287.75;;;17.86;61.36
43707;BME280;61348;53.392;-6.248;2023-05-09T12:22:56;100282.59;;;17.74;62.25
43707;BME280;61348;53.392;-6.248;2023-05-09T12:25:24;100280.59;;;17.71;62.34
43707;BME280;61348;53.392;-6.248;2023-05-09T12:27:51;100283.00;;;17.76;62.40
43707;BME280;61348;53.392;-6.248;2023-05-09T12:30:20;100276.56;;;17.82;62.41
43707;BME280;61348;53.392;-6.248;2023-05-09T12:32:47;100269.66;;;18.08;62.26
43707;BME280;61348;53.392;-6.248;2023-05-09T12:35:14;100281.53;;;18.30;62.26
43707;BME280;61348;53.392;-6.248;2023-05-09T12:37:59;100275.13;;;18.36;61.94
43707;BME280;61348;53.392;-6.248;2023-05-09T12:40:27;100272.38;;;18.22;62.07
43707;BME280;61348;53.392;-6.248;2023-05-09T12:42:56;100273.63;;;18.14;62.44
43707;BME280;61348;53.392;-6.248;2023-05-09T12:45:26;100276.41;;;18.17;62.28
43707;BME280;61348;53.392;-6.248;2023-05-09T12:47:53;100275.56;;;18.27;62.16
43707;BME280;61348;53.392;-6.248;2023-05-09T12:50:19;100281.19;;;18.24;62.24
43707;BME280;61348;53.392;-6.248;2023-05-09T12:52:50;100270.03;;;18.13;62.44
43707;BME280;61348;53.392;-6.248;2023-05-09T12:55:29;100268.47;;;18.02;62.55
43707;BME280;61348;53.392;-6.248;2023-05-09T12:58:01;100268.09;;;17.93;62.92
43707;BME280;61348;53.392;-6.248;2023-05-09T13:00:40;100269.72;;;17.94;62.70
43707;BME280;61348;53.392;-6.248;2023-05-09T13:03:40;100265.72;;;17.88;62.80
43707;BME280;61348;53.392;-6.248;2023-05-09T13:06:11;100254.94;;;17.83;62.90
43707;BME280;61348;53.392;-6.248;2023-05-09T13:08:39;100266.50;;;17.99;63.23